sensor_id;sensor_type;location;lat;lon;timestamp;P1;durP1;ratioP1;P2;durP2;ratioP2
27539;SDS011;15906;52.046;4.724;2022-10-31T00:01:15;7.65;;;4.20;;
27539;SDS011;15906;52.046;4.724;2022-10-31T00:03:43;9.00;;;3.88;;
27539;SDS011;15906;52.046;4.724;2022-10-31T00:06:08;5.65;;;3.97;;
27539;SDS011;15906;52.046;4.724;2022-10-31T00:08:34;7.10;;;4.45;;
27539;SDS011;15906;52.046;4.724;2022-10-31T00:10:59;9.60;;;3.80;;
27539;SDS011;15906;52.046;4.724;2022-10-31T00:13:25;5.93;;;3.90;;
27539;SDS011;15906;52.046;4.724;2022-10-31T00:15:51;7.93;;;3.90;;
27539;SDS011;15906;52.046;4.724;2022-10-31T00:18:16;6.75;;;3.75;;
27539;SDS011;15906;52.046;4.724;2022-10-31T00:20:42;7.10;;;3.80;;
27539;SDS011;15906;52.046;4.724;2022-10-31T00:23:07;6.07;;;3.72;;
27539;SDS011;15906;52.046;4.724;2022-10-31T00:25:34;7.18;;;3.50;;
27539;SDS011;15906;52.046;4.724;2022-10-31T00:28:02;8.10;;;3.53;;
27539;SDS011;15906;52.046;4.724;2022-10-31T00:30:28;8.23;;;3.78;;
27539;SDS011;15906;52.046;4.724;2022-10-31T00:32:53;6.50;;;4.15;;
27539;SDS011;15906;52.046;4.724;2022-10-31T00:35:19;9.02;;;4.28;;
27539;SDS011;15906;52.046;4.724;2022-10-31T00:37:44;6.63;;;3.80;;
27539;SDS011;15906;52.046;4.724;2022-10-31T00:40:10;6.60;;;3.92;;
27539;SDS011;15906;52.046;4.724;2022-10-31T00:42:36;6.63;;;4.15;;
27539;SDS011;15906;52.046;4.724;2022-10-31T00:45:01;5.03;;;3.40;;
27539;SDS011;15906;52.046;4.724;2022-10-31T00:47:27;5.60;;;3.80;;
27539;SDS011;15906;52.046;4.724;2022-10-31T00:49:53;9.43;;;4.40;;
27539;SDS011;15906;52.046;4.724;2022-10-31T00:52:18;8.23;;;4.03;;
27539;SDS011;15906;52.046;4.724;2022-10-31T00:54:44;6.38;;;4.30;;
27539;SDS011;15906;52.046;4.724;2022-10-31T00:57:09;7.30;;;4.03;;
27539;SDS011;15906;52.046;4.724;2022-10-31T00:59:35;7.38;;;4.40;;
27539;SDS011;15906;52.046;4.724;2022-10-31T01:02:00;6.75;;;3.75;;
27539;SDS011;15906;52.046;4.724;2022-10-31T01:04:26;8.02;;;4.65;;
27539;SDS011;15906;52.046;4.724;2022-10-31T01:06:51;7.55;;;4.63;;
27539;SDS011;15906;52.046;4.724;2022-10-31T01:09:17;7.13;;;5.20;;
27539;SDS011;15906;52.046;4.724;2022-10-31T01:11:43;12.80;;;5.53;;
27539;SDS011;15906;52.046;4.724;2022-10-31T01:14:09;8.32;;;4.95;;
27539;SDS011;15906;52.046;4.724;2022-10-31T01:16:34;13.00;;;5.88;;
27539;SDS011;15906;52.046;4.724;2022-10-31T01:19:00;16.92;;;6.28;;
27539;SDS011;15906;52.046;4.724;2022-10-31T01:21:26;11.27;;;5.85;;
27539;SDS011;15906;52.046;4.724;2022-10-31T01:23:53;8.40;;;6.13;;
27539;SDS011;15906;52.046;4.724;2022-10-31T01:26:23;9.50;;;6.55;;
27539;SDS011;15906;52.046;4.724;2022-10-31T01:28:54;10.00;;;6.18;;
27539;SDS011;15906;52.046;4.724;2022-10-31T01:31:22;10.40;;;6.45;;
27539;SDS011;15906;52.046;4.724;2022-10-31T01:33:49;9.00;;;5.68;;
27539;SDS011;15906;52.046;4.724;2022-10-31T01:36:16;8.75;;;5.47;;
27539;SDS011;15906;52.046;4.724;2022-10-31T01:38:45;9.65;;;5.70;;
27539;SDS011;15906;52.046;4.724;2022-10-31T01:41:11;9.65;;;4.70;;
27539;SDS011;15906;52.046;4.724;2022-10-31T01:46:34;8.88;;;5.50;;
27539;SDS011;15906;52.046;4.724;2022-10-31T01:49:06;11.25;;;4.43;;
27539;SDS011;15906;52.046;4.724;2022-10-31T01:51:38;8.98;;;5.70;;
27539;SDS011;15906;52.046;4.724;2022-10-31T01:54:11;12.10;;;5.57;;
27539;SDS011;15906;52.046;4.724;2022-10-31T01:56:40;11.25;;;5.30;;
27539;SDS011;15906;52.046;4.724;2022-10-31T01:59:10;12.60;;;5.45;;
27539;SDS011;15906;52.046;4.724;2022-10-31T02:01:38;11.07;;;5.45;;
27539;SDS011;15906;52.046;4.724;2022-10-31T02:04:04;9.40;;;5.70;;
27539;SDS011;15906;52.046;4.724;2022-10-31T02:09:29;8.98;;;6.20;;
27539;SDS011;15906;52.046;4.724;2022-10-31T02:11:57;9.98;;;6.07;;
27539;SDS011;15906;52.046;4.724;2022-10-31T02:14:25;13.00;;;6.15;;
27539;SDS011;15906;52.046;4.724;2022-10-31T02:16:55;18.45;;;7.22;;
27539;SDS011;15906;52.046;4.724;2022-10-31T02:19:25;13.18;;;8.52;;
27539;SDS011;15906;52.046;4.724;2022-10-31T02:21:58;13.10;;;8.45;;
27539;SDS011;15906;52.046;4.724;2022-10-31T02:24:52;12.95;;;7.85;;
27539;SDS011;15906;52.046;4.724;2022-10-31T02:33:33;11.63;;;7.53;;
27539;SDS011;15906;52.046;4.724;2022-10-31T02:36:11;15.13;;;8.00;;
27539;SDS011;15906;52.046;4.724;2022-10-31T02:41:23;13.25;;;8.02;;
27539;SDS011;15906;52.046;4.724;2022-10-31T02:46:44;12.40;;;8.05;;
27539;SDS011;15906;52.046;4.724;2022-10-31T02:52:01;15.38;;;7.68;;
27539;SDS011;15906;52.046;4.724;2022-10-31T02:54:27;11.38;;;7.57;;
27539;SDS011;15906;52.046;4.724;2022-10-31T02:56:58;10.18;;;7.53;;
27539;SDS011;15906;52.046;4.724;2022-10-31T02:59:27;15.23;;;8.60;;
27539;SDS011;15906;52.046;4.724;2022-10-31T03:02:09;16.55;;;9.57;;
27539;SDS011;15906;52.046;4.724;2022-10-31T03:07:29;12.73;;;9.43;;
27539;SDS011;15906;52.046;4.724;2022-10-31T03:10:17;17.95;;;9.82;;
27539;SDS011;15906;52.046;4.724;2022-10-31T03:15:53;20.05;;;11.32;;
27539;SDS011;15906;52.046;4.724;2022-10-31T03:18:29;13.77;;;11.05;;
27539;SDS011;15906;52.046;4.724;2022-10-31T03:23:39;18.55;;;11.27;;
27539;SDS011;15906;52.046;4.724;2022-10-31T03:26:07;19.02;;;11.15;;
27539;SDS011;15906;52.046;4.724;2022-10-31T03:28:38;22.17;;;12.50;;
27539;SDS011;15906;52.046;4.724;2022-10-31T03:31:19;20.67;;;12.38;;
27539;SDS011;15906;52.046;4.724;2022-10-31T03:33:50;19.95;;;12.52;;
27539;SDS011;15906;52.046;4.724;2022-10-31T03:36:16;23.65;;;13.70;;
27539;SDS011;15906;52.046;4.724;2022-10-31T03:38:43;16.55;;;12.60;;
27539;SDS011;15906;52.046;4.724;2022-10-31T03:41:12;17.55;;;12.52;;
27539;SDS011;15906;52.046;4.724;2022-10-31T03:43:44;21.83;;;13.20;;
27539;SDS011;15906;52.046;4.724;2022-10-31T03:46:16;21.65;;;13.68;;
27539;SDS011;15906;52.046;4.724;2022-10-31T03:48:42;19.05;;;13.30;;
27539;SDS011;15906;52.046;4.724;2022-10-31T03:51:15;20.95;;;13.85;;
27539;SDS011;15906;52.046;4.724;2022-10-31T03:56:26;20.67;;;14.50;;
27539;SDS011;15906;52.046;4.724;2022-10-31T03:59:00;21.20;;;15.02;;
27539;SDS011;15906;52.046;4.724;2022-10-31T04:01:29;22.92;;;14.50;;
27539;SDS011;15906;52.046;4.724;2022-10-31T04:03:58;18.67;;;14.57;;
27539;SDS011;15906;52.046;4.724;2022-10-31T04:06:25;19.30;;;15.15;;
27539;SDS011;15906;52.046;4.724;2022-10-31T04:08:52;21.58;;;14.75;;
27539;SDS011;15906;52.046;4.724;2022-10-31T04:11:23;26.45;;;15.13;;
27539;SDS011;15906;52.046;4.724;2022-10-31T04:13:53;18.83;;;14.52;;
27539;SDS011;15906;52.046;4.724;2022-10-31T04:16:20;25.88;;;16.60;;
27539;SDS011;15906;52.046;4.724;2022-10-31T04:18:47;21.08;;;14.55;;
27539;SDS011;15906;52.046;4.724;2022-10-31T04:21:13;21.98;;;14.73;;
27539;SDS011;15906;52.046;4.724;2022-10-31T04:23:38;25.33;;;15.32;;
27539;SDS011;15906;52.046;4.724;2022-10-31T04:26:04;23.92;;;15.50;;
27539;SDS011;15906;52.046;4.724;2022-10-31T04:28:30;22.02;;;15.60;;
27539;SDS011;15906;52.046;4.724;2022-10-31T04:30:57;23.77;;;16.10;;
27539;SDS011;15906;52.046;4.724;2022-10-31T04:33:23;24.80;;;15.77;;
27539;SDS011;15906;52.046;4.724;2022-10-31T04:35:48;24.40;;;17.70;;
27539;SDS011;15906;52.046;4.724;2022-10-31T04:38:14;21.30;;;15.68;;
27539;SDS011;15906;52.046;4.724;2022-10-31T04:40:40;26.02;;;15.18;;
27539;SDS011;15906;52.046;4.724;2022-10-31T04:43:05;29.80;;;16.27;;
27539;SDS011;15906;52.046;4.724;2022-10-31T04:45:31;21.60;;;15.45;;
27539;SDS011;15906;52.046;4.724;2022-10-31T04:47:56;29.98;;;15.95;;
27539;SDS011;15906;52.046;4.724;2022-10-31T04:50:22;21.65;;;15.45;;
27539;SDS011;15906;52.046;4.724;2022-10-31T04:52:47;21.48;;;15.15;;
27539;SDS011;15906;52.046;4.724;2022-10-31T04:55:13;22.55;;;15.57;;
27539;SDS011;15906;52.046;4.724;2022-10-31T04:57:42;23.40;;;15.80;;
27539;SDS011;15906;52.046;4.724;2022-10-31T05:00:08;19.98;;;14.02;;
27539;SDS011;15906;52.046;4.724;2022-10-31T05:02:42;23.45;;;14.88;;
27539;SDS011;15906;52.046;4.724;2022-10-31T05:05:08;19.77;;;14.50;;
27539;SDS011;15906;52.046;4.724;2022-10-31T05:07:37;24.65;;;14.82;;
27539;SDS011;15906;52.046;4.724;2022-10-31T05:10:04;21.90;;;14.77;;
27539;SDS011;15906;52.046;4.724;2022-10-31T05:12:30;25.58;;;14.93;;
27539;SDS011;15906;52.046;4.724;2022-10-31T05:14:56;22.77;;;15.25;;
27539;SDS011;15906;52.046;4.724;2022-10-31T05:17:21;23.70;;;15.20;;
27539;SDS011;15906;52.046;4.724;2022-10-31T05:19:47;26.05;;;15.57;;
27539;SDS011;15906;52.046;4.724;2022-10-31T05:22:12;22.25;;;14.88;;
27539;SDS011;15906;52.046;4.724;2022-10-31T05:24:37;21.30;;;13.88;;
27539;SDS011;15906;52.046;4.724;2022-10-31T05:27:03;20.30;;;13.13;;
27539;SDS011;15906;52.046;4.724;2022-10-31T05:29:28;20.52;;;14.10;;
27539;SDS011;15906;52.046;4.724;2022-10-31T05:31:58;18.35;;;13.20;;
27539;SDS011;15906;52.046;4.724;2022-10-31T05:34:23;16.42;;;12.95;;
27539;SDS011;15906;52.046;4.724;2022-10-31T05:36:49;17.08;;;12.32;;
27539;SDS011;15906;52.046;4.724;2022-10-31T05:39:14;18.17;;;12.35;;
27539;SDS011;15906;52.046;4.724;2022-10-31T05:41:40;19.48;;;12.95;;
27539;SDS011;15906;52.046;4.724;2022-10-31T05:44:05;20.40;;;12.60;;
27539;SDS011;15906;52.046;4.724;2022-10-31T05:46:31;20.33;;;13.10;;
27539;SDS011;15906;52.046;4.724;2022-10-31T05:48:57;20.42;;;14.23;;
27539;SDS011;15906;52.046;4.724;2022-10-31T05:51:22;20.05;;;12.73;;
27539;SDS011;15906;52.046;4.724;2022-10-31T05:53:48;18.67;;;12.82;;
27539;SDS011;15906;52.046;4.724;2022-10-31T05:56:13;20.38;;;13.90;;
27539;SDS011;15906;52.046;4.724;2022-10-31T05:58:39;22.15;;;13.80;;
27539;SDS011;15906;52.046;4.724;2022-10-31T06:01:04;20.92;;;13.48;;
27539;SDS011;15906;52.046;4.724;2022-10-31T06:03:30;20.92;;;13.65;;
27539;SDS011;15906;52.046;4.724;2022-10-31T06:05:56;20.33;;;13.65;;
27539;SDS011;15906;52.046;4.724;2022-10-31T06:08:21;19.33;;;11.73;;
27539;SDS011;15906;52.046;4.724;2022-10-31T06:10:47;17.33;;;12.02;;
27539;SDS011;15906;52.046;4.724;2022-10-31T06:13:13;23.33;;;14.30;;
27539;SDS011;15906;52.046;4.724;2022-10-31T06:15:38;19.48;;;12.50;;
27539;SDS011;15906;52.046;4.724;2022-10-31T06:18:04;20.92;;;14.10;;
27539;SDS011;15906;52.046;4.724;2022-10-31T06:20:32;19.58;;;13.05;;
27539;SDS011;15906;52.046;4.724;2022-10-31T06:22:58;20.52;;;13.13;;
27539;SDS011;15906;52.046;4.724;2022-10-31T06:25:23;22.58;;;14.02;;
27539;SDS011;15906;52.046;4.724;2022-10-31T06:27:49;27.02;;;14.93;;
27539;SDS011;15906;52.046;4.724;2022-10-31T06:30:14;24.35;;;15.65;;
27539;SDS011;15906;52.046;4.724;2022-10-31T06:32:40;23.70;;;15.57;;
27539;SDS011;15906;52.046;4.724;2022-10-31T06:35:06;25.88;;;16.02;;
27539;SDS011;15906;52.046;4.724;2022-10-31T06:37:31;29.02;;;17.27;;
27539;SDS011;15906;52.046;4.724;2022-10-31T06:39:57;27.08;;;16.63;;
27539;SDS011;15906;52.046;4.724;2022-10-31T06:42:22;27.58;;;16.65;;
27539;SDS011;15906;52.046;4.724;2022-10-31T06:44:48;25.02;;;16.50;;
27539;SDS011;15906;52.046;4.724;2022-10-31T06:47:13;44.75;;;17.23;;
27539;SDS011;15906;52.046;4.724;2022-10-31T06:49:39;29.23;;;16.45;;
27539;SDS011;15906;52.046;4.724;2022-10-31T06:52:04;26.98;;;16.77;;
27539;SDS011;15906;52.046;4.724;2022-10-31T06:54:30;32.33;;;16.25;;
27539;SDS011;15906;52.046;4.724;2022-10-31T06:56:55;24.27;;;15.60;;
27539;SDS011;15906;52.046;4.724;2022-10-31T06:59:21;26.13;;;15.25;;
27539;SDS011;15906;52.046;4.724;2022-10-31T07:01:46;34.22;;;15.93;;
27539;SDS011;15906;52.046;4.724;2022-10-31T07:04:12;35.20;;;15.52;;
27539;SDS011;15906;52.046;4.724;2022-10-31T07:06:38;39.90;;;15.57;;
27539;SDS011;15906;52.046;4.724;2022-10-31T07:09:03;36.80;;;15.27;;
27539;SDS011;15906;52.046;4.724;2022-10-31T07:11:29;42.58;;;15.45;;
27539;SDS011;15906;52.046;4.724;2022-10-31T07:13:55;22.90;;;13.98;;
27539;SDS011;15906;52.046;4.724;2022-10-31T07:16:21;26.40;;;14.73;;
27539;SDS011;15906;52.046;4.724;2022-10-31T07:18:46;46.63;;;14.40;;
27539;SDS011;15906;52.046;4.724;2022-10-31T07:21:12;46.38;;;15.02;;
27539;SDS011;15906;52.046;4.724;2022-10-31T07:23:37;25.95;;;13.80;;
27539;SDS011;15906;52.046;4.724;2022-10-31T07:26:03;27.15;;;14.40;;
27539;SDS011;15906;52.046;4.724;2022-10-31T07:28:28;36.65;;;14.80;;
27539;SDS011;15906;52.046;4.724;2022-10-31T07:30:55;42.60;;;15.57;;
27539;SDS011;15906;52.046;4.724;2022-10-31T07:33:22;88.07;;;15.55;;
27539;SDS011;15906;52.046;4.724;2022-10-31T07:35:48;69.97;;;16.02;;
27539;SDS011;15906;52.046;4.724;2022-10-31T07:38:14;36.67;;;16.67;;
27539;SDS011;15906;52.046;4.724;2022-10-31T07:40:40;66.18;;;17.33;;
27539;SDS011;15906;52.046;4.724;2022-10-31T07:43:07;53.92;;;17.17;;
27539;SDS011;15906;52.046;4.724;2022-10-31T07:45:35;42.25;;;16.63;;
27539;SDS011;15906;52.046;4.724;2022-10-31T07:48:00;37.78;;;17.15;;
27539;SDS011;15906;52.046;4.724;2022-10-31T07:50:28;47.58;;;17.35;;
27539;SDS011;15906;52.046;4.724;2022-10-31T07:52:59;45.47;;;17.45;;
27539;SDS011;15906;52.046;4.724;2022-10-31T07:55:33;43.03;;;17.60;;
27539;SDS011;15906;52.046;4.724;2022-10-31T07:58:09;27.25;;;17.52;;
27539;SDS011;15906;52.046;4.724;2022-10-31T08:00:39;34.65;;;18.73;;
27539;SDS011;15906;52.046;4.724;2022-10-31T08:03:07;33.55;;;18.25;;
27539;SDS011;15906;52.046;4.724;2022-10-31T08:05:34;33.47;;;19.30;;
27539;SDS011;15906;52.046;4.724;2022-10-31T08:08:00;36.47;;;19.90;;
27539;SDS011;15906;52.046;4.724;2022-10-31T08:10:26;33.03;;;19.15;;
27539;SDS011;15906;52.046;4.724;2022-10-31T08:12:59;46.35;;;19.33;;
27539;SDS011;15906;52.046;4.724;2022-10-31T08:15:27;43.47;;;19.50;;
27539;SDS011;15906;52.046;4.724;2022-10-31T08:17:53;52.38;;;20.35;;
27539;SDS011;15906;52.046;4.724;2022-10-31T08:20:19;41.90;;;18.40;;
27539;SDS011;15906;52.046;4.724;2022-10-31T08:22:52;46.30;;;19.45;;
27539;SDS011;15906;52.046;4.724;2022-10-31T08:25:19;55.00;;;19.92;;
27539;SDS011;15906;52.046;4.724;2022-10-31T08:27:48;33.47;;;17.95;;
27539;SDS011;15906;52.046;4.724;2022-10-31T08:30:21;29.83;;;19.67;;
27539;SDS011;15906;52.046;4.724;2022-10-31T08:32:56;32.38;;;18.02;;
27539;SDS011;15906;52.046;4.724;2022-10-31T08:35:33;41.03;;;19.45;;
27539;SDS011;15906;52.046;4.724;2022-10-31T08:37:59;36.03;;;19.05;;
27539;SDS011;15906;52.046;4.724;2022-10-31T08:40:26;31.02;;;19.00;;
27539;SDS011;15906;52.046;4.724;2022-10-31T08:43:12;33.85;;;19.48;;
27539;SDS011;15906;52.046;4.724;2022-10-31T08:45:39;36.80;;;20.63;;
27539;SDS011;15906;52.046;4.724;2022-10-31T08:48:06;38.63;;;21.52;;
27539;SDS011;15906;52.046;4.724;2022-10-31T08:50:35;34.88;;;21.40;;
27539;SDS011;15906;52.046;4.724;2022-10-31T08:53:34;36.58;;;20.40;;
27539;SDS011;15906;52.046;4.724;2022-10-31T08:55:54;38.25;;;21.38;;
27539;SDS011;15906;52.046;4.724;2022-10-31T08:58:20;36.40;;;22.30;;
27539;SDS011;15906;52.046;4.724;2022-10-31T09:00:47;33.75;;;22.10;;
27539;SDS011;15906;52.046;4.724;2022-10-31T09:03:15;38.63;;;21.77;;
27539;SDS011;15906;52.046;4.724;2022-10-31T09:05:43;35.75;;;21.67;;
27539;SDS011;15906;52.046;4.724;2022-10-31T09:08:09;42.13;;;22.58;;
27539;SDS011;15906;52.046;4.724;2022-10-31T09:10:35;34.17;;;21.63;;
27539;SDS011;15906;52.046;4.724;2022-10-31T09:13:03;33.63;;;20.58;;
27539;SDS011;15906;52.046;4.724;2022-10-31T09:15:37;30.08;;;20.33;;
27539;SDS011;15906;52.046;4.724;2022-10-31T09:18:04;35.30;;;20.63;;
27539;SDS011;15906;52.046;4.724;2022-10-31T09:20:31;28.23;;;18.52;;
27539;SDS011;15906;52.046;4.724;2022-10-31T09:22:58;24.70;;;17.20;;
27539;SDS011;15906;52.046;4.724;2022-10-31T09:25:25;26.85;;;16.88;;
27539;SDS011;15906;52.046;4.724;2022-10-31T09:27:50;26.65;;;16.08;;
27539;SDS011;15906;52.046;4.724;2022-10-31T09:30:19;25.23;;;17.35;;
27539;SDS011;15906;52.046;4.724;2022-10-31T09:32:45;23.80;;;16.67;;
27539;SDS011;15906;52.046;4.724;2022-10-31T09:35:10;30.08;;;17.45;;
27539;SDS011;15906;52.046;4.724;2022-10-31T09:37:36;22.30;;;17.10;;
27539;SDS011;15906;52.046;4.724;2022-10-31T09:40:01;29.85;;;17.63;;
27539;SDS011;15906;52.046;4.724;2022-10-31T09:42:37;25.38;;;18.08;;
27539;SDS011;15906;52.046;4.724;2022-10-31T09:45:30;29.67;;;18.67;;
27539;SDS011;15906;52.046;4.724;2022-10-31T09:48:05;29.75;;;18.38;;
27539;SDS011;15906;52.046;4.724;2022-10-31T09:56:17;34.13;;;19.85;;
27539;SDS011;15906;52.046;4.724;2022-10-31T09:58:46;32.20;;;19.42;;
27539;SDS011;15906;52.046;4.724;2022-10-31T10:01:29;32.08;;;20.40;;
27539;SDS011;15906;52.046;4.724;2022-10-31T10:04:05;31.60;;;19.77;;
27539;SDS011;15906;52.046;4.724;2022-10-31T10:06:46;32.85;;;20.92;;
27539;SDS011;15906;52.046;4.724;2022-10-31T10:09:14;41.03;;;21.98;;
27539;SDS011;15906;52.046;4.724;2022-10-31T10:11:54;37.63;;;23.13;;
27539;SDS011;15906;52.046;4.724;2022-10-31T10:17:17;38.10;;;22.70;;
27539;SDS011;15906;52.046;4.724;2022-10-31T10:22:39;38.80;;;21.48;;
27539;SDS011;15906;52.046;4.724;2022-10-31T10:25:14;38.13;;;21.50;;
27539;SDS011;15906;52.046;4.724;2022-10-31T10:27:49;40.97;;;21.98;;
27539;SDS011;15906;52.046;4.724;2022-10-31T10:30:20;36.35;;;21.10;;
27539;SDS011;15906;52.046;4.724;2022-10-31T10:32:53;33.38;;;21.35;;
27539;SDS011;15906;52.046;4.724;2022-10-31T10:35:35;36.28;;;20.88;;
27539;SDS011;15906;52.046;4.724;2022-10-31T10:40:59;38.90;;;22.27;;
27539;SDS011;15906;52.046;4.724;2022-10-31T10:43:36;44.10;;;23.75;;
27539;SDS011;15906;52.046;4.724;2022-10-31T10:49:19;37.58;;;22.50;;
27539;SDS011;15906;52.046;4.724;2022-10-31T10:54:45;33.75;;;21.02;;
27539;SDS011;15906;52.046;4.724;2022-10-31T11:03:05;29.20;;;17.75;;
27539;SDS011;15906;52.046;4.724;2022-10-31T11:05:35;33.75;;;18.77;;
27539;SDS011;15906;52.046;4.724;2022-10-31T11:08:02;31.08;;;19.70;;
27539;SDS011;15906;52.046;4.724;2022-10-31T11:10:28;34.97;;;19.88;;
27539;SDS011;15906;52.046;4.724;2022-10-31T11:12:59;32.42;;;20.23;;
27539;SDS011;15906;52.046;4.724;2022-10-31T11:15:36;36.25;;;21.58;;
27539;SDS011;15906;52.046;4.724;2022-10-31T11:18:19;36.00;;;21.10;;
27539;SDS011;15906;52.046;4.724;2022-10-31T11:20:51;34.72;;;21.52;;
27539;SDS011;15906;52.046;4.724;2022-10-31T11:23:19;35.20;;;21.92;;
27539;SDS011;15906;52.046;4.724;2022-10-31T11:25:49;34.83;;;20.55;;
27539;SDS011;15906;52.046;4.724;2022-10-31T11:28:17;32.30;;;20.52;;
27539;SDS011;15906;52.046;4.724;2022-10-31T11:30:46;40.92;;;21.77;;
27539;SDS011;15906;52.046;4.724;2022-10-31T11:33:20;32.92;;;21.75;;
27539;SDS011;15906;52.046;4.724;2022-10-31T11:35:50;37.50;;;22.25;;
27539;SDS011;15906;52.046;4.724;2022-10-31T11:38:18;31.63;;;22.35;;
27539;SDS011;15906;52.046;4.724;2022-10-31T11:40:52;35.45;;;22.45;;
27539;SDS011;15906;52.046;4.724;2022-10-31T11:43:23;39.53;;;24.27;;
27539;SDS011;15906;52.046;4.724;2022-10-31T11:45:49;30.98;;;21.00;;
27539;SDS011;15906;52.046;4.724;2022-10-31T11:48:16;33.85;;;21.92;;
27539;SDS011;15906;52.046;4.724;2022-10-31T11:50:48;33.90;;;22.15;;
27539;SDS011;15906;52.046;4.724;2022-10-31T11:53:21;34.65;;;21.25;;
27539;SDS011;15906;52.046;4.724;2022-10-31T11:56:03;37.17;;;20.80;;
27539;SDS011;15906;52.046;4.724;2022-10-31T11:58:38;33.67;;;20.98;;
27539;SDS011;15906;52.046;4.724;2022-10-31T12:01:05;38.92;;;21.00;;
27539;SDS011;15906;52.046;4.724;2022-10-31T12:06:43;35.40;;;20.98;;
27539;SDS011;15906;52.046;4.724;2022-10-31T12:09:23;35.03;;;20.38;;
27539;SDS011;15906;52.046;4.724;2022-10-31T12:14:28;31.73;;;20.17;;
27539;SDS011;15906;52.046;4.724;2022-10-31T12:27:48;36.38;;;21.27;;
27539;SDS011;15906;52.046;4.724;2022-10-31T12:30:30;34.30;;;19.88;;
27539;SDS011;15906;52.046;4.724;2022-10-31T12:33:23;33.92;;;20.15;;
27539;SDS011;15906;52.046;4.724;2022-10-31T12:36:12;32.03;;;20.08;;
27539;SDS011;15906;52.046;4.724;2022-10-31T12:39:05;32.08;;;20.13;;
27539;SDS011;15906;52.046;4.724;2022-10-31T12:41:52;33.08;;;20.13;;
27539;SDS011;15906;52.046;4.724;2022-10-31T12:50:31;39.03;;;22.05;;
27539;SDS011;15906;52.046;4.724;2022-10-31T12:59:02;46.83;;;23.00;;
27539;SDS011;15906;52.046;4.724;2022-10-31T13:02:10;43.30;;;23.52;;
27539;SDS011;15906;52.046;4.724;2022-10-31T13:07:29;46.47;;;25.17;;
27539;SDS011;15906;52.046;4.724;2022-10-31T13:12:53;43.58;;;23.60;;
27539;SDS011;15906;52.046;4.724;2022-10-31T13:15:23;46.28;;;24.58;;
27539;SDS011;15906;52.046;4.724;2022-10-31T13:17:56;46.25;;;25.17;;
27539;SDS011;15906;52.046;4.724;2022-10-31T13:20:34;45.47;;;25.20;;
27539;SDS011;15906;52.046;4.724;2022-10-31T13:23:10;46.65;;;25.30;;
27539;SDS011;15906;52.046;4.724;2022-10-31T13:25:46;47.45;;;24.60;;
27539;SDS011;15906;52.046;4.724;2022-10-31T13:28:22;52.03;;;26.48;;
27539;SDS011;15906;52.046;4.724;2022-10-31T13:31:08;49.00;;;26.70;;
27539;SDS011;15906;52.046;4.724;2022-10-31T13:33:41;50.92;;;26.20;;
27539;SDS011;15906;52.046;4.724;2022-10-31T13:36:15;45.70;;;26.58;;
27539;SDS011;15906;52.046;4.724;2022-10-31T13:38:57;52.05;;;26.35;;
27539;SDS011;15906;52.046;4.724;2022-10-31T13:44:23;52.88;;;26.88;;
27539;SDS011;15906;52.046;4.724;2022-10-31T13:46:51;55.58;;;28.95;;
27539;SDS011;15906;52.046;4.724;2022-10-31T13:54:37;55.35;;;28.20;;
27539;SDS011;15906;52.046;4.724;2022-10-31T13:57:21;52.08;;;28.85;;
27539;SDS011;15906;52.046;4.724;2022-10-31T14:00:00;52.45;;;28.58;;
27539;SDS011;15906;52.046;4.724;2022-10-31T14:02:33;53.67;;;29.60;;
27539;SDS011;15906;52.046;4.724;2022-10-31T14:05:02;51.92;;;29.40;;
27539;SDS011;15906;52.046;4.724;2022-10-31T14:07:30;52.85;;;29.48;;
27539;SDS011;15906;52.046;4.724;2022-10-31T14:10:04;55.38;;;28.05;;
27539;SDS011;15906;52.046;4.724;2022-10-31T14:12:49;53.70;;;27.92;;
27539;SDS011;15906;52.046;4.724;2022-10-31T14:15:22;46.63;;;27.67;;
27539;SDS011;15906;52.046;4.724;2022-10-31T14:17:51;50.58;;;28.13;;
27539;SDS011;15906;52.046;4.724;2022-10-31T14:28:50;54.13;;;28.95;;
27539;SDS011;15906;52.046;4.724;2022-10-31T14:33:52;50.70;;;27.38;;
27539;SDS011;15906;52.046;4.724;2022-10-31T14:36:19;56.58;;;28.42;;
27539;SDS011;15906;52.046;4.724;2022-10-31T14:39:00;53.58;;;27.90;;
27539;SDS011;15906;52.046;4.724;2022-10-31T14:44:20;50.20;;;29.25;;
27539;SDS011;15906;52.046;4.724;2022-10-31T14:46:57;52.42;;;26.73;;
27539;SDS011;15906;52.046;4.724;2022-10-31T14:49:44;45.95;;;26.80;;
27539;SDS011;15906;52.046;4.724;2022-10-31T14:52:36;48.97;;;26.75;;
27539;SDS011;15906;52.046;4.724;2022-10-31T14:55:03;50.30;;;27.02;;
27539;SDS011;15906;52.046;4.724;2022-10-31T14:57:35;52.72;;;25.95;;
27539;SDS011;15906;52.046;4.724;2022-10-31T15:00:06;51.40;;;25.88;;
27539;SDS011;15906;52.046;4.724;2022-10-31T15:05:27;49.03;;;26.27;;
27539;SDS011;15906;52.046;4.724;2022-10-31T15:07:55;49.83;;;26.33;;
27539;SDS011;15906;52.046;4.724;2022-10-31T15:10:22;52.00;;;27.10;;
27539;SDS011;15906;52.046;4.724;2022-10-31T15:12:50;51.10;;;27.75;;
27539;SDS011;15906;52.046;4.724;2022-10-31T15:15:24;49.72;;;26.02;;
27539;SDS011;15906;52.046;4.724;2022-10-31T15:17:52;50.72;;;26.85;;
27539;SDS011;15906;52.046;4.724;2022-10-31T15:20:21;49.33;;;26.92;;
27539;SDS011;15906;52.046;4.724;2022-10-31T15:22:51;51.50;;;27.25;;
27539;SDS011;15906;52.046;4.724;2022-10-31T15:25:20;48.60;;;27.60;;
27539;SDS011;15906;52.046;4.724;2022-10-31T15:27:48;53.65;;;28.13;;
27539;SDS011;15906;52.046;4.724;2022-10-31T15:30:18;53.88;;;27.63;;
27539;SDS011;15906;52.046;4.724;2022-10-31T15:32:46;55.13;;;28.20;;
27539;SDS011;15906;52.046;4.724;2022-10-31T15:38:07;51.90;;;27.38;;
27539;SDS011;15906;52.046;4.724;2022-10-31T15:40:34;54.95;;;26.95;;
27539;SDS011;15906;52.046;4.724;2022-10-31T15:43:04;50.05;;;26.77;;
27539;SDS011;15906;52.046;4.724;2022-10-31T15:45:31;52.92;;;27.42;;
27539;SDS011;15906;52.046;4.724;2022-10-31T15:47:58;50.28;;;26.00;;
27539;SDS011;15906;52.046;4.724;2022-10-31T15:52:59;46.30;;;26.52;;
27539;SDS011;15906;52.046;4.724;2022-10-31T15:55:26;56.28;;;27.52;;
27539;SDS011;15906;52.046;4.724;2022-10-31T15:57:57;59.13;;;25.92;;
27539;SDS011;15906;52.046;4.724;2022-10-31T16:00:31;53.10;;;25.83;;
27539;SDS011;15906;52.046;4.724;2022-10-31T16:05:52;56.42;;;28.77;;
27539;SDS011;15906;52.046;4.724;2022-10-31T16:08:22;50.08;;;26.95;;
27539;SDS011;15906;52.046;4.724;2022-10-31T16:13:36;49.80;;;26.23;;
27539;SDS011;15906;52.046;4.724;2022-10-31T16:16:03;49.72;;;25.38;;
27539;SDS011;15906;52.046;4.724;2022-10-31T16:18:36;53.15;;;26.75;;
27539;SDS011;15906;52.046;4.724;2022-10-31T16:21:03;49.90;;;26.85;;
27539;SDS011;15906;52.046;4.724;2022-10-31T16:23:30;44.33;;;25.30;;
27539;SDS011;15906;52.046;4.724;2022-10-31T16:25:55;46.78;;;25.20;;
27539;SDS011;15906;52.046;4.724;2022-10-31T16:28:23;46.60;;;25.23;;
27539;SDS011;15906;52.046;4.724;2022-10-31T16:30:51;48.47;;;25.83;;
27539;SDS011;15906;52.046;4.724;2022-10-31T16:35:57;48.15;;;26.58;;
27539;SDS011;15906;52.046;4.724;2022-10-31T16:38:23;63.70;;;31.23;;
27539;SDS011;15906;52.046;4.724;2022-10-31T16:40:49;49.80;;;27.25;;
27539;SDS011;15906;52.046;4.724;2022-10-31T16:43:16;56.47;;;32.55;;
27539;SDS011;15906;52.046;4.724;2022-10-31T16:45:48;55.10;;;33.03;;
27539;SDS011;15906;52.046;4.724;2022-10-31T16:48:17;51.17;;;28.48;;
27539;SDS011;15906;52.046;4.724;2022-10-31T16:50:46;44.72;;;25.95;;